Time;durP1;ratioP1;P1;durP2;ratioP2;P2;SDS_P1;SDS_P2;PMS_P1;PMS_P2;Temp;Humidity;BMP_temperature;BMP_pressure;BME280_temperature;BME280_humidity;BME280_pressure;Samples;Min_cycle;Max_cycle;Signal;HPM_P1;HPM_P2
2021/12/31 00:01:42;;;;;;;14.52;3.08;;;13.20;99.90;;;;;;5095117;28;20089;-86
2021/12/31 00:04:08;;;;;;;9.07;3.08;;;13.20;99.90;;;;;;5078367;28;20143;-85
2021/12/31 00:06:34;;;;;;;13.45;2.90;;;13.20;99.90;;;;;;5111255;28;20048;-86
2021/12/31 00:09:00;;;;;;;13.18;3.55;;;13.20;99.90;;;;;;5112036;28;20544;-86
2021/12/31 00:11:25;;;;;;;12.93;3.05;;;13.30;99.90;;;;;;5111363;28;20046;-86
2021/12/31 00:13:51;;;;;;;9.43;2.90;;;13.30;99.90;;;;;;5111884;28;20079;-86
2021/12/31 00:16:16;;;;;;;10.60;2.70;;;13.20;99.90;;;;;;5111241;28;20051;-84
2021/12/31 00:18:42;;;;;;;15.82;3.40;;;13.20;99.90;;;;;;5094114;28;20490;-86
2021/12/31 00:21:08;;;;;;;13.70;3.00;;;13.30;99.90;;;;;;5111427;28;20503;-86
2021/12/31 00:23:33;;;;;;;16.70;3.20;;;13.30;99.90;;;;;;5111068;28;20134;-86
2021/12/31 00:25:59;;;;;;;13.80;3.42;;;13.20;99.90;;;;;;5111567;28;20070;-86
2021/12/31 00:28:25;;;;;;;9.27;3.03;;;13.30;99.90;;;;;;5093912;28;20078;-86
2021/12/31 00:30:55;;;;;;;12.77;3.00;;;13.30;99.90;;;;;;5111366;28;20051;-85
2021/12/31 00:33:21;;;;;;;11.90;3.42;;;13.30;99.90;;;;;;5110881;28;20047;-85
2021/12/31 00:35:47;;;;;;;13.32;3.00;;;13.20;99.90;;;;;;5093889;28;20567;-87
2021/12/31 00:38:13;;;;;;;13.93;3.05;;;13.30;99.90;;;;;;5111440;28;20201;-87
2021/12/31 00:40:38;;;;;;;13.70;2.83;;;13.30;99.90;;;;;;5076841;28;20417;-86
2021/12/31 00:43:06;;;;;;;17.25;3.22;;;14.00;99.90;;;;;;5094398;28;20051;-87
2021/12/31 00:45:36;;;;;;;16.23;3.30;;;13.20;99.90;;;;;;5092336;28;20055;-86
2021/12/31 00:48:02;;;;;;;15.60;3.08;;;13.30;99.90;;;;;;5094756;28;20115;-86
2021/12/31 00:50:28;;;;;;;12.02;3.10;;;13.30;99.90;;;;;;5093699;28;20108;-87
2021/12/31 00:52:54;;;;;;;14.63;3.50;;;13.30;99.90;;;;;;5077482;28;20043;-86
2021/12/31 00:55:19;;;;;;;11.50;2.75;;;13.20;99.90;;;;;;5110824;28;20040;-85
2021/12/31 00:57:45;;;;;;;12.50;3.35;;;13.30;99.90;;;;;;5110156;28;20055;-86
2021/12/31 01:00:12;;;;;;;17.08;3.72;;;13.40;99.90;;;;;;5110846;28;20055;-86
2021/12/31 01:02:39;;;;;;;19.27;3.95;;;13.30;99.90;;;;;;5093546;28;20130;-86
2021/12/31 01:05:05;;;;;;;12.23;4.53;;;13.20;99.90;;;;;;5093598;28;20047;-86
2021/12/31 01:07:31;;;;;;;14.35;4.38;;;13.20;99.90;;;;;;5059855;28;20167;-87
2021/12/31 01:09:57;;;;;;;16.08;4.38;;;13.30;99.90;;;;;;5110929;28;20047;-87
2021/12/31 01:12:24;;;;;;;15.23;4.85;;;13.30;99.90;;;;;;5110516;28;20541;-85
2021/12/31 01:17:39;;;;;;;16.05;4.85;;;13.10;99.90;;;;;;5111132;28;20094;-86
2021/12/31 01:20:05;;;;;;;17.85;4.80;;;13.30;99.90;;;;;;5111832;28;20048;-85
2021/12/31 01:22:32;;;;;;;15.38;4.78;;;13.20;99.90;;;;;;5110617;28;20047;-87
2021/12/31 01:24:58;;;;;;;16.27;3.95;;;13.20;99.90;;;;;;5093678;28;20052;-85
2021/12/31 01:27:24;;;;;;;14.57;4.25;;;13.20;99.90;;;;;;5093739;28;20044;-87
2021/12/31 01:29:50;;;;;;;14.98;4.15;;;13.10;99.90;;;;;;5093027;28;20071;-87
2021/12/31 01:32:15;;;;;;;14.60;4.05;;;13.10;99.90;;;;;;5076911;28;20130;-87
2021/12/31 01:34:41;;;;;;;14.25;4.35;;;13.10;99.90;;;;;;5092985;28;20094;-87
2021/12/31 01:37:07;;;;;;;18.23;4.43;;;13.10;99.90;;;;;;5110276;28;20059;-87
2021/12/31 01:39:32;;;;;;;20.70;5.50;;;13.30;99.90;;;;;;5092781;28;20051;-87
2021/12/31 01:41:59;;;;;;;19.17;4.15;;;13.30;99.90;;;;;;5093213;28;20055;-87
2021/12/31 01:44:29;;;;;;;16.10;4.00;;;13.30;99.90;;;;;;5075743;28;20048;-88
2021/12/31 01:47:00;;;;;;;13.63;3.63;;;13.20;99.90;;;;;;5094104;28;20445;-86
2021/12/31 01:49:33;;;;;;;14.15;3.58;;;13.30;99.90;;;;;;5076687;28;20368;-86
2021/12/31 01:51:59;;;;;;;17.03;4.00;;;13.20;99.90;;;;;;5110260;28;20048;-86
2021/12/31 01:54:24;;;;;;;19.50;4.57;;;13.10;99.90;;;;;;5093241;28;20293;-86
2021/12/31 01:56:50;;;;;;;14.25;3.33;;;13.10;99.90;;;;;;5112198;28;20375;-87
2021/12/31 01:59:16;;;;;;;18.67;4.15;;;13.10;99.90;;;;;;5080630;28;20558;-87
2021/12/31 02:01:41;;;;;;;17.73;4.55;;;13.30;99.90;;;;;;5096942;28;20506;-87
2021/12/31 02:04:07;;;;;;;15.70;4.03;;;13.10;99.90;;;;;;5114948;28;20062;-87
2021/12/31 02:06:34;;;;;;;13.48;3.75;;;13.10;99.90;;;;;;5081585;28;20056;-87
2021/12/31 02:09:01;;;;;;;14.50;3.63;;;13.10;99.90;;;;;;5099293;28;20054;-86
2021/12/31 02:11:28;;;;;;;10.93;4.15;;;13.00;99.90;;;;;;5082239;28;20082;-86
2021/12/31 02:13:54;;;;;;;11.68;3.00;;;13.10;99.90;;;;;;5116161;28;20058;-86
2021/12/31 02:16:19;;;;;;;13.93;3.38;;;13.10;99.90;;;;;;5082509;28;20391;-86
2021/12/31 02:18:45;;;;;;;13.85;2.97;;;13.10;99.90;;;;;;5080170;28;20052;-86
2021/12/31 02:21:12;;;;;;;12.10;3.70;;;13.10;99.90;;;;;;5114334;28;20065;-87
2021/12/31 02:23:43;;;;;;;14.73;3.53;;;13.20;99.90;;;;;;5113608;28;20047;-87
2021/12/31 02:26:10;;;;;;;13.50;3.42;;;13.20;99.90;;;;;;5114377;28;20048;-87
2021/12/31 02:28:36;;;;;;;11.73;4.05;;;13.10;99.90;;;;;;5096499;28;20078;-86
2021/12/31 02:31:03;;;;;;;12.32;3.45;;;13.20;99.90;;;;;;5080144;28;20476;-87
2021/12/31 02:33:30;;;;;;;13.95;3.78;;;13.20;99.90;;;;;;5080242;28;20448;-86
2021/12/31 02:35:56;;;;;;;11.68;4.18;;;13.20;99.90;;;;;;5095904;28;20063;-87
2021/12/31 02:38:22;;;;;;;13.23;3.88;;;13.20;99.90;;;;;;5114135;28;20047;-87
2021/12/31 02:40:47;;;;;;;15.73;4.15;;;13.10;99.90;;;;;;5113107;28;20070;-87
2021/12/31 02:43:13;;;;;;;12.23;3.55;;;13.30;99.90;;;;;;5113680;28;20075;-88
2021/12/31 02:45:41;;;;;;;13.88;4.20;;;13.20;99.90;;;;;;5078558;28;20051;-86
2021/12/31 02:48:06;;;;;;;9.73;3.42;;;13.30;99.90;;;;;;5113755;28;20434;-87
2021/12/31 02:50:34;;;;;;;7.68;3.47;;;13.20;99.90;;;;;;5096367;28;20043;-89
2021/12/31 02:53:08;;;;;;;10.07;3.63;;;13.40;99.90;;;;;;5113188;28;20044;-87
2021/12/31 02:55:35;;;;;;;11.98;4.07;;;13.40;99.90;;;;;;5080123;28;20050;-87
2021/12/31 02:58:01;;;;;;;11.63;3.97;;;13.30;99.90;;;;;;5096113;28;20092;-86
2021/12/31 03:00:27;;;;;;;15.55;3.95;;;13.30;99.90;;;;;;5113348;28;20043;-87
2021/12/31 03:02:53;;;;;;;11.05;4.00;;;13.30;99.90;;;;;;5079197;28;20048;-88
2021/12/31 03:05:18;;;;;;;12.07;4.40;;;13.30;99.90;;;;;;5096653;28;20036;-87
2021/12/31 03:07:46;;;;;;;10.32;3.95;;;13.40;99.90;;;;;;5077786;28;20059;-86
2021/12/31 03:10:11;;;;;;;13.77;3.92;;;13.40;99.90;;;;;;5096538;28;20442;-86
2021/12/31 03:12:40;;;;;;;13.68;4.60;;;13.50;99.90;;;;;;5095980;28;20059;-85
2021/12/31 03:15:07;;;;;;;10.02;3.90;;;13.50;99.90;;;;;;5112939;28;20087;-88
2021/12/31 03:17:33;;;;;;;10.77;4.07;;;13.50;99.90;;;;;;5096001;28;20112;-86
2021/12/31 03:20:10;;;;;;;9.85;4.00;;;13.40;99.90;;;;;;5061969;28;20047;-86
2021/12/31 03:22:36;;;;;;;11.90;4.63;;;13.50;99.90;;;;;;5112924;28;20108;-87
2021/12/31 03:25:01;;;;;;;11.02;4.20;;;13.60;99.90;;;;;;5113336;28;20155;-86
2021/12/31 03:27:27;;;;;;;9.15;4.15;;;13.50;99.90;;;;;;5095883;28;20138;-85
2021/12/31 03:29:53;;;;;;;9.75;4.93;;;13.50;99.90;;;;;;5112199;28;20039;-86
2021/12/31 03:32:18;;;;;;;12.38;5.10;;;13.50;99.90;;;;;;5112616;28;20047;-85
2021/12/31 03:34:44;;;;;;;7.05;4.68;;;13.50;99.90;;;;;;5094999;28;20054;-85
2021/12/31 03:37:09;;;;;;;11.70;5.07;;;13.70;99.90;;;;;;5112292;28;20526;-87
2021/12/31 03:39:35;;;;;;;9.35;4.85;;;13.60;99.90;;;;;;5112856;28;20052;-87
2021/12/31 03:42:01;;;;;;;10.15;4.65;;;13.50;99.90;;;;;;5111851;28;20491;-86
2021/12/31 03:44:26;;;;;;;8.13;4.78;;;13.70;99.90;;;;;;5112424;28;20056;-87
2021/12/31 03:46:52;;;;;;;7.97;4.45;;;13.50;99.90;;;;;;5094815;28;20054;-87
2021/12/31 03:49:18;;;;;;;13.70;5.10;;;13.60;99.90;;;;;;5095460;28;20389;-86
2021/12/31 03:51:43;;;;;;;10.05;4.95;;;13.60;99.90;;;;;;5095097;28;20044;-86
2021/12/31 03:54:09;;;;;;;10.40;4.88;;;13.60;99.90;;;;;;5094932;28;20391;-87
2021/12/31 03:56:35;;;;;;;8.07;4.28;;;13.60;99.90;;;;;;5077990;28;20059;-87
2021/12/31 03:59:00;;;;;;;8.75;4.20;;;13.60;99.90;;;;;;5094676;28;20104;-86
2021/12/31 04:01:27;;;;;;;10.73;3.85;;;13.50;99.90;;;;;;5095054;28;20047;-87
2021/12/31 04:03:53;;;;;;;6.65;3.47;;;13.70;99.90;;;;;;5077886;28;20051;-87
2021/12/31 04:06:21;;;;;;;5.45;3.67;;;13.70;99.90;;;;;;5078601;28;20052;-87
2021/12/31 04:08:47;;;;;;;9.88;4.35;;;13.70;99.90;;;;;;5094968;28;20047;-85
2021/12/31 04:11:13;;;;;;;10.98;3.78;;;13.60;99.90;;;;;;5113158;28;20059;-87
2021/12/31 04:13:39;;;;;;;8.70;3.25;;;13.50;99.90;;;;;;5111685;28;20046;-87
2021/12/31 04:16:05;;;;;;;8.15;3.33;;;13.50;99.90;;;;;;5111515;28;20155;-87
2021/12/31 04:18:31;;;;;;;8.80;3.15;;;13.50;99.90;;;;;;5111727;28;20134;-87
2021/12/31 04:20:57;;;;;;;6.93;2.95;;;13.50;99.90;;;;;;5077092;28;20534;-86
2021/12/31 04:23:33;;;;;;;10.90;3.40;;;13.60;99.90;;;;;;5094979;28;20115;-86
2021/12/31 04:25:59;;;;;;;12.43;3.10;;;13.60;99.90;;;;;;5095251;28;20051;-88
2021/12/31 04:28:25;;;;;;;4.90;3.17;;;13.60;99.90;;;;;;5111411;28;20043;-87
2021/12/31 04:30:51;;;;;;;8.52;3.22;;;13.50;99.90;;;;;;5111067;28;20134;-88
2021/12/31 04:33:17;;;;;;;9.55;3.45;;;13.50;99.90;;;;;;5094812;28;20158;-87
2021/12/31 04:35:43;;;;;;;8.57;2.58;;;13.60;99.90;;;;;;5094292;28;20039;-87
2021/12/31 04:38:08;;;;;;;5.38;2.33;;;13.70;99.90;;;;;;5093919;28;20133;-85
2021/12/31 04:40:34;;;;;;;9.38;4.38;;;13.70;99.90;;;;;;5094359;28;20467;-86
2021/12/31 04:42:59;;;;;;;7.88;3.00;;;13.70;99.90;;;;;;5093770;28;20047;-87
2021/12/31 04:45:25;;;;;;;7.90;4.10;;;13.90;99.90;;;;;;5111016;28;20054;-88
2021/12/31 04:47:51;;;;;;;10.25;4.28;;;13.80;99.90;;;;;;5093984;28;20059;-86
2021/12/31 04:50:17;;;;;;;8.02;4.38;;;13.70;99.90;;;;;;5093990;28;20051;-88
2021/12/31 04:52:43;;;;;;;6.93;4.72;;;13.70;99.90;;;;;;5111109;28;20051;-87
2021/12/31 04:55:09;;;;;;;11.25;5.50;;;13.60;99.90;;;;;;5093272;28;20044;-88
2021/12/31 04:57:34;;;;;;;11.15;5.88;;;13.80;99.90;;;;;;5077260;28;20086;-86
2021/12/31 05:00:00;;;;;;;9.13;6.05;;;13.70;99.90;;;;;;5110529;28;20083;-87
2021/12/31 05:02:26;;;;;;;6.70;6.00;;;13.70;99.90;;;;;;5094729;28;20047;-87
2021/12/31 05:04:52;;;;;;;10.75;5.93;;;13.60;99.90;;;;;;5112964;28;20089;-85
2021/12/31 05:07:17;;;;;;;9.85;5.88;;;13.60;99.90;;;;;;5110612;28;20059;-86
2021/12/31 05:09:43;;;;;;;9.05;6.20;;;13.60;99.90;;;;;;5093951;28;20138;-87
2021/12/31 05:12:14;;;;;;;10.75;5.70;;;13.60;99.90;;;;;;5093464;28;20445;-88
2021/12/31 05:14:41;;;;;;;13.02;5.80;;;13.60;99.90;;;;;;5094333;28;20116;-87
2021/12/31 05:17:06;;;;;;;8.80;5.70;;;13.60;99.90;;;;;;5076118;28;20087;-88
2021/12/31 05:19:32;;;;;;;10.50;5.72;;;13.60;99.90;;;;;;5110908;28;20090;-86
2021/12/31 05:21:57;;;;;;;8.82;5.22;;;13.50;99.90;;;;;;5093437;28;20093;-87
2021/12/31 05:24:23;;;;;;;8.50;4.55;;;13.50;99.90;;;;;;5110659;28;20047;-87
2021/12/31 05:26:49;;;;;;;8.82;4.80;;;13.60;99.90;;;;;;5111910;28;20084;-87
2021/12/31 05:29:14;;;;;;;8.85;4.30;;;13.60;99.90;;;;;;5109854;28;20043;-87
2021/12/31 05:31:40;;;;;;;11.15;4.03;;;13.70;99.90;;;;;;5109706;28;20119;-87
2021/12/31 05:34:05;;;;;;;6.80;4.05;;;13.70;99.90;;;;;;5076093;28;20051;-88
2021/12/31 05:36:31;;;;;;;8.95;4.20;;;13.80;99.90;;;;;;5093294;28;20048;-86
2021/12/31 05:38:57;;;;;;;7.47;3.70;;;13.70;99.90;;;;;;5110171;28;20048;-84
2021/12/31 05:41:23;;;;;;;7.63;3.40;;;13.80;99.90;;;;;;5110173;28;20130;-87
2021/12/31 05:43:48;;;;;;;7.63;3.88;;;13.90;99.90;;;;;;5111225;28;20135;-87
2021/12/31 05:46:14;;;;;;;5.78;3.38;;;13.80;99.90;;;;;;5109713;28;20094;-86
2021/12/31 05:48:40;;;;;;;6.60;3.35;;;13.70;99.90;;;;;;5076609;28;20053;-86
2021/12/31 05:51:05;;;;;;;8.07;3.13;;;13.70;99.90;;;;;;5076102;28;20044;-87
2021/12/31 05:53:31;;;;;;;6.15;3.60;;;13.70;99.90;;;;;;5110225;28;20436;-86
2021/12/31 05:55:57;;;;;;;6.20;3.03;;;13.60;99.90;;;;;;5110048;28;20183;-88
2021/12/31 05:58:22;;;;;;;6.65;3.30;;;13.60;99.90;;;;;;5076044;28;20048;-87
2021/12/31 06:00:48;;;;;;;9.02;3.33;;;13.70;99.90;;;;;;5093294;28;20597;-89
2021/12/31 06:03:13;;;;;;;6.78;3.45;;;13.70;99.90;;;;;;5092766;28;20453;-88
2021/12/31 06:05:39;;;;;;;5.78;3.30;;;13.70;99.90;;;;;;5109965;28;20042;-88
2021/12/31 06:08:05;;;;;;;4.85;3.13;;;13.70;99.90;;;;;;5075865;28;20104;-87
2021/12/31 06:10:31;;;;;;;4.35;3.00;;;13.80;99.90;;;;;;5093430;28;20058;-87
2021/12/31 06:12:59;;;;;;;5.65;3.10;;;13.70;99.90;;;;;;5077264;28;20400;-89
2021/12/31 06:15:25;;;;;;;4.13;2.50;;;13.60;99.90;;;;;;5077054;28;20058;-86
2021/12/31 06:17:51;;;;;;;7.65;3.00;;;13.60;99.90;;;;;;5076703;28;20053;-86
2021/12/31 06:20:17;;;;;;;9.13;3.13;;;13.60;99.90;;;;;;5092298;28;20062;-87
2021/12/31 06:22:43;;;;;;;5.68;2.95;;;13.60;99.90;;;;;;5093007;28;20043;-88
2021/12/31 06:25:09;;;;;;;8.43;2.60;;;13.60;99.90;;;;;;5109862;28;20100;-87
2021/12/31 06:27:34;;;;;;;6.78;3.00;;;13.60;99.90;;;;;;5110235;28;20051;-89
2021/12/31 06:30:01;;;;;;;6.35;2.80;;;13.50;99.90;;;;;;5093202;28;20488;-88
2021/12/31 06:32:26;;;;;;;5.22;2.50;;;13.50;99.90;;;;;;5109605;28;20130;-88
2021/12/31 06:34:52;;;;;;;6.15;2.70;;;13.50;99.90;;;;;;5110118;28;20444;-88
2021/12/31 06:37:18;;;;;;;5.32;2.80;;;13.50;99.90;;;;;;5095648;28;20043;-88
2021/12/31 06:39:45;;;;;;;5.82;2.60;;;13.50;99.90;;;;;;5117700;28;20039;-90
2021/12/31 06:42:11;;;;;;;8.32;2.67;;;13.50;99.90;;;;;;5121541;28;20099;-87
2021/12/31 06:44:37;;;;;;;5.13;2.50;;;13.70;99.90;;;;;;5122786;28;20136;-88
2021/12/31 06:47:03;;;;;;;5.43;2.65;;;13.70;99.90;;;;;;5121533;28;20148;-88
2021/12/31 06:49:30;;;;;;;4.28;2.22;;;13.70;99.90;;;;;;5118949;28;20047;-90
2021/12/31 06:51:55;;;;;;;8.80;2.75;;;13.60;99.90;;;;;;5096918;28;20100;-89
2021/12/31 06:54:21;;;;;;;3.70;2.10;;;13.50;99.90;;;;;;5113332;28;20047;-88
2021/12/31 06:56:47;;;;;;;5.90;2.55;;;13.40;99.90;;;;;;5096564;28;20047;-88
2021/12/31 06:59:13;;;;;;;5.80;2.90;;;13.50;99.90;;;;;;5096221;28;20058;-88
2021/12/31 07:01:38;;;;;;;5.28;3.00;;;13.40;99.90;;;;;;5120215;28;20091;-87
2021/12/31 07:04:04;;;;;;;8.77;3.15;;;13.40;99.90;;;;;;5118648;28;20071;-87
2021/12/31 07:06:30;;;;;;;6.03;2.88;;;13.40;99.90;;;;;;5100420;28;20053;-88
2021/12/31 07:08:55;;;;;;;4.75;2.60;;;13.40;99.90;;;;;;5117670;28;20065;-88
2021/12/31 07:11:22;;;;;;;5.30;2.60;;;13.30;99.90;;;;;;5098397;28;20047;-89
2021/12/31 07:13:51;;;;;;;4.60;2.60;;;13.20;99.90;;;;;;5096669;28;20134;-89
2021/12/31 07:16:17;;;;;;;4.05;2.60;;;13.20;99.90;;;;;;5112461;28;20050;-87
2021/12/31 07:18:42;;;;;;;4.38;2.47;;;13.10;99.90;;;;;;5113070;28;20051;-88
2021/12/31 07:21:08;;;;;;;5.28;2.75;;;13.10;99.90;;;;;;5096068;28;20134;-86
2021/12/31 07:23:34;;;;;;;5.15;3.05;;;13.10;99.90;;;;;;5095330;28;20047;-88
2021/12/31 07:25:59;;;;;;;6.90;2.72;;;13.10;99.90;;;;;;5095924;28;20062;-88
2021/12/31 07:28:25;;;;;;;6.07;2.70;;;13.10;99.90;;;;;;5112328;28;20041;-88
2021/12/31 07:30:51;;;;;;;4.63;2.75;;;13.20;99.90;;;;;;5113001;28;20044;-89
2021/12/31 07:33:21;;;;;;;8.48;2.70;;;13.20;99.90;;;;;;5095452;28;20078;-89
2021/12/31 07:35:47;;;;;;;6.68;2.97;;;13.00;99.90;;;;;;5096504;28;20043;-89
2021/12/31 07:38:20;;;;;;;4.75;2.58;;;13.20;99.90;;;;;;5095390;28;20474;-85
2021/12/31 07:40:50;;;;;;;5.37;2.80;;;13.10;99.90;;;;;;5112934;28;20051;-88
2021/12/31 07:43:16;;;;;;;5.88;2.80;;;13.10;99.90;;;;;;5112299;28;20068;-87
2021/12/31 07:45:41;;;;;;;5.25;2.72;;;13.00;99.90;;;;;;5112259;28;20060;-88
2021/12/31 07:48:07;;;;;;;6.97;2.90;;;13.00;99.90;;;;;;5112600;28;20099;-89
2021/12/31 07:50:33;;;;;;;6.70;2.55;;;13.00;99.90;;;;;;5111692;28;20608;-89
2021/12/31 07:52:59;;;;;;;3.35;2.60;;;13.00;99.90;;;;;;5078761;28;20455;-88
2021/12/31 07:55:24;;;;;;;4.88;3.17;;;13.10;99.90;;;;;;5094685;28;20086;-90
2021/12/31 07:57:50;;;;;;;7.28;2.83;;;13.00;99.90;;;;;;5095893;28;20055;-88
2021/12/31 08:00:16;;;;;;;4.75;3.03;;;13.00;99.90;;;;;;5095388;28;20051;-89
2021/12/31 08:02:41;;;;;;;4.40;3.00;;;13.00;99.90;;;;;;5113436;28;20086;-89
2021/12/31 08:05:07;;;;;;;7.00;3.50;;;12.90;99.90;;;;;;5097064;28;20073;-89
2021/12/31 08:07:33;;;;;;;4.22;3.08;;;13.00;99.90;;;;;;5103208;28;20051;-91
2021/12/31 08:09:59;;;;;;;6.45;2.90;;;12.90;99.90;;;;;;5124592;28;20068;-91
2021/12/31 08:12:24;;;;;;;6.45;2.70;;;13.00;99.90;;;;;;5115921;28;20043;-91
2021/12/31 08:14:50;;;;;;;6.72;3.28;;;13.00;99.90;;;;;;5112953;28;20056;-90
2021/12/31 08:17:16;;;;;;;6.50;2.78;;;13.10;99.90;;;;;;5112822;28;20046;-85
2021/12/31 08:19:41;;;;;;;4.18;2.70;;;13.00;99.90;;;;;;5112357;28;20047;-89
2021/12/31 08:22:07;;;;;;;3.80;2.30;;;13.10;99.90;;;;;;5107686;28;20075;-87
2021/12/31 08:24:33;;;;;;;5.47;2.78;;;13.30;99.90;;;;;;5123470;28;20395;-89
2021/12/31 08:26:59;;;;;;;4.80;2.72;;;13.20;99.90;;;;;;5095487;28;20059;-88
2021/12/31 08:29:25;;;;;;;7.30;2.97;;;13.30;99.90;;;;;;5094365;28;20087;-85
2021/12/31 08:31:51;;;;;;;4.75;2.70;;;13.30;99.90;;;;;;5077973;28;20066;-88
2021/12/31 08:34:16;;;;;;;6.93;2.75;;;13.40;99.90;;;;;;5111649;28;20052;-88
2021/12/31 08:36:42;;;;;;;5.60;3.15;;;13.40;99.90;;;;;;5111311;28;20130;-92
2021/12/31 08:39:09;;;;;;;5.18;2.45;;;13.30;99.90;;;;;;5112999;28;20483;-89
2021/12/31 08:41:35;;;;;;;6.07;2.67;;;13.30;99.90;;;;;;5094359;28;20495;-88
2021/12/31 08:44:01;;;;;;;6.25;2.67;;;13.40;99.90;;;;;;5122801;27;20102;-88
2021/12/31 08:46:27;;;;;;;4.68;2.85;;;13.30;99.90;;;;;;5074073;28;20099;-84
2021/12/31 08:48:52;;;;;;;6.03;2.90;;;13.30;99.90;;;;;;5073725;28;20052;-87
2021/12/31 08:51:19;;;;;;;7.22;3.20;;;13.20;99.90;;;;;;5108318;28;20048;-89
2021/12/31 08:53:44;;;;;;;3.20;2.05;;;12.90;99.90;;;;;;5108264;28;20115;-91
2021/12/31 08:56:10;;;;;;;7.25;2.70;;;13.50;99.90;;;;;;5107874;28;20051;-89
2021/12/31 08:58:35;;;;;;;7.60;3.58;;;13.40;99.90;;;;;;5090521;28;20131;-92
2021/12/31 09:01:01;;;;;;;7.85;3.00;;;13.50;99.90;;;;;;5092132;28;20039;-90
2021/12/31 09:03:27;;;;;;;3.75;2.35;;;13.50;99.90;;;;;;5092361;28;20059;-89
2021/12/31 09:05:52;;;;;;;4.57;3.05;;;13.60;99.90;;;;;;5121407;27;20058;-90
2021/12/31 09:08:18;;;;;;;3.58;2.45;;;13.40;99.90;;;;;;5094132;28;20062;-90
2021/12/31 09:10:44;;;;;;;5.63;2.65;;;13.60;99.90;;;;;;5076057;28;20058;-86
2021/12/31 09:13:09;;;;;;;6.75;3.10;;;13.50;99.90;;;;;;5093748;28;20055;-88
2021/12/31 09:15:35;;;;;;;6.25;3.15;;;13.60;99.90;;;;;;5127353;27;20087;-89
2021/12/31 09:18:01;;;;;;;4.90;3.45;;;13.50;99.90;;;;;;5093762;28;20051;-89
2021/12/31 09:20:28;;;;;;;7.47;3.55;;;13.40;99.90;;;;;;5076254;28;20048;-87
2021/12/31 09:22:54;;;;;;;5.55;3.28;;;13.40;99.90;;;;;;5127862;27;20043;-86
2021/12/31 09:25:20;;;;;;;3.67;2.58;;;13.40;99.90;;;;;;5128147;27;20043;-89
2021/12/31 09:27:45;;;;;;;5.00;2.90;;;13.50;99.90;;;;;;5129896;27;20530;-87
2021/12/31 09:30:12;;;;;;;6.38;3.25;;;13.40;99.90;;;;;;5115727;28;20078;-89
2021/12/31 09:32:37;;;;;;;7.45;3.13;;;13.50;99.90;;;;;;5079102;28;20108;-89
2021/12/31 09:35:04;;;;;;;7.97;3.03;;;13.30;99.90;;;;;;5096478;28;20027;-90
2021/12/31 09:37:29;;;;;;;6.55;3.42;;;13.50;99.90;;;;;;5094127;28;20048;-90
2021/12/31 09:39:55;;;;;;;6.40;3.20;;;13.50;99.90;;;;;;5094748;28;20043;-90
2021/12/31 09:42:20;;;;;;;6.82;2.88;;;13.60;99.90;;;;;;5128827;27;20132;-92
2021/12/31 09:44:49;;;;;;;4.43;2.92;;;13.60;99.90;;;;;;5127800;27;20062;-88
2021/12/31 09:47:15;;;;;;;5.22;2.72;;;13.50;99.90;;;;;;5078049;28;20189;-89
2021/12/31 09:49:41;;;;;;;6.80;2.90;;;13.60;99.90;;;;;;5094898;28;20047;-85
2021/12/31 09:52:11;;;;;;;3.08;2.70;;;13.60;99.90;;;;;;5094006;28;20051;-88
2021/12/31 09:54:55;;;;;;;4.53;2.88;;;13.50;99.90;;;;;;5093609;28;20048;-87
2021/12/31 09:57:21;;;;;;;7.43;3.03;;;13.60;99.90;;;;;;5093780;28;20169;-89
2021/12/31 09:59:47;;;;;;;4.35;2.60;;;13.50;99.90;;;;;;5076661;28;20126;-88
2021/12/31 10:02:13;;;;;;;4.40;2.50;;;13.60;99.90;;;;;;5093833;28;20047;-88
2021/12/31 10:04:58;;;;;;;5.43;2.85;;;13.60;99.90;;;;;;5093471;28;20156;-88
2021/12/31 10:07:24;;;;;;;4.88;2.83;;;13.60;99.90;;;;;;5094616;28;20090;-87
2021/12/31 10:10:10;;;;;;;5.13;2.83;;;13.50;99.90;;;;;;5076765;28;20603;-88
2021/12/31 10:12:46;;;;;;;5.97;3.22;;;13.50;99.90;;;;;;5093397;28;20067;-89
2021/12/31 10:15:12;;;;;;;7.65;3.30;;;13.50;99.90;;;;;;5078667;28;20050;-91
2021/12/31 10:17:38;;;;;;;4.65;3.38;;;13.50;99.90;;;;;;5100146;28;20031;-90
2021/12/31 10:20:04;;;;;;;5.47;2.85;;;13.40;99.90;;;;;;5106415;27;20559;-89
2021/12/31 10:22:30;;;;;;;4.10;3.03;;;13.40;99.90;;;;;;5129922;27;20035;-88
2021/12/31 10:24:55;;;;;;;7.22;3.33;;;13.30;99.90;;;;;;5128585;27;20375;-88
2021/12/31 10:27:21;;;;;;;5.20;3.30;;;13.30;99.90;;;;;;5108442;27;20055;-87
2021/12/31 10:29:57;;;;;;;6.10;3.30;;;13.40;99.90;;;;;;5126398;27;20046;-89
2021/12/31 10:32:24;;;;;;;4.15;2.90;;;13.50;99.90;;;;;;5099387;27;20073;-90
2021/12/31 10:34:50;;;;;;;8.23;3.20;;;13.40;99.90;;;;;;5081686;27;20043;-88
2021/12/31 10:37:18;;;;;;;4.93;3.00;;;13.40;99.90;;;;;;5109402;27;20046;-90
2021/12/31 10:39:45;;;;;;;4.65;3.33;;;13.50;99.90;;;;;;5112405;27;20046;-91
2021/12/31 10:42:14;;;;;;;6.22;3.30;;;13.50;99.90;;;;;;5111594;27;20387;-88
2021/12/31 10:44:53;;;;;;;5.13;3.35;;;13.40;99.90;;;;;;5099876;27;20043;-92
2021/12/31 10:47:23;;;;;;;4.95;3.22;;;13.40;99.90;;;;;;5129347;27;20047;-90
2021/12/31 10:50:04;;;;;;;5.97;3.28;;;13.40;99.90;;;;;;5096649;27;20059;-85
2021/12/31 10:52:38;;;;;;;7.35;3.10;;;13.30;99.90;;;;;;5115477;27;20074;-92
2021/12/31 10:55:26;;;;;;;;;;;13.20;99.90;;;;;;5117761;27;20100;-93
2021/12/31 10:58:04;;;;;;;9.15;3.25;;;13.40;99.90;;;;;;5122712;27;20014;-90
2021/12/31 11:00:41;;;;;;;7.00;3.55;;;13.30;99.90;;;;;;5101009;28;20043;-88
2021/12/31 11:03:06;;;;;;;7.93;3.40;;;13.30;99.90;;;;;;5090265;27;20047;-87
2021/12/31 11:05:35;;;;;;;5.40;3.00;;;13.30;99.90;;;;;;5099813;27;20054;-86
2021/12/31 11:08:05;;;;;;;9.43;3.30;;;13.30;99.90;;;;;;5100938;27;20057;-92
2021/12/31 11:10:34;;;;;;;6.57;3.25;;;13.30;99.90;;;;;;5123811;27;20054;-91
2021/12/31 11:13:02;;;;;;;6.55;3.90;;;13.30;99.90;;;;;;5143395;27;20051;-89
2021/12/31 11:15:27;;;;;;;6.68;3.80;;;13.10;99.90;;;;;;5103478;27;20059;-87
2021/12/31 11:17:53;;;;;;;8.13;4.20;;;13.20;99.90;;;;;;5099411;27;20054;-87
2021/12/31 11:20:23;;;;;;;5.28;4.40;;;13.20;99.90;;;;;;5133681;27;20571;-87
2021/12/31 11:22:49;;;;;;;8.82;4.30;;;13.20;99.90;;;;;;5099393;27;20054;-90
2021/12/31 11:25:18;;;;;;;8.52;4.78;;;13.00;99.90;;;;;;5091760;28;20383;-90
2021/12/31 11:27:47;;;;;;;8.45;4.80;;;12.80;99.90;;;;;;5111987;28;20510;-88
2021/12/31 11:30:37;;;;;;;11.35;4.93;;;12.90;99.90;;;;;;5079066;28;20243;-88
2021/12/31 11:33:14;;;;;;;7.35;4.80;;;12.90;99.90;;;;;;5105820;27;20050;-85
2021/12/31 11:35:43;;;;;;;10.38;5.13;;;12.70;99.90;;;;;;5090568;28;20772;-89
2021/12/31 11:38:16;;;;;;;8.35;5.10;;;12.70;99.90;;;;;;5076540;28;20052;-90
2021/12/31 11:40:45;;;;;;;10.10;5.60;;;12.60;99.90;;;;;;5109819;28;20052;-88
2021/12/31 11:43:25;;;;;;;11.73;6.32;;;12.60;99.90;;;;;;5112948;28;20533;-90
2021/12/31 11:46:10;;;;;;;10.60;6.22;;;12.60;99.90;;;;;;5094310;28;20063;-89
2021/12/31 11:48:51;;;;;;;9.40;5.43;;;12.50;99.90;;;;;;5094880;28;20059;-90
2021/12/31 11:51:18;;;;;;;7.78;5.43;;;12.60;99.90;;;;;;5113142;28;20056;-94
2021/12/31 11:53:59;;;;;;;9.98;6.05;;;12.60;99.90;;;;;;5096461;28;20044;-89
2021/12/31 11:59:16;;;;;;;11.60;6.10;;;12.40;99.90;;;;;;5112404;28;20047;-91
2021/12/31 12:01:55;;;;;;;10.35;6.60;;;12.30;99.90;;;;;;5110621;28;20043;-91
2021/12/31 12:04:28;;;;;;;12.10;5.93;;;12.40;99.90;;;;;;5088604;28;20052;-90
2021/12/31 12:07:00;;;;;;;10.45;5.70;;;12.50;99.90;;;;;;5094633;28;20067;-90
2021/12/31 12:09:41;;;;;;;11.27;5.82;;;12.40;99.90;;;;;;5112688;28;20076;-90
2021/12/31 12:12:15;;;;;;;13.50;6.53;;;12.40;99.90;;;;;;5110421;28;20444;-86
2021/12/31 12:14:51;;;;;;;12.88;6.80;;;12.40;99.90;;;;;;5095756;28;20054;-85
2021/12/31 12:17:29;;;;;;;11.05;7.05;;;12.40;99.90;;;;;;5076458;28;20424;-86
2021/12/31 12:20:00;;;;;;;15.75;7.93;;;12.30;99.90;;;;;;5111265;28;20060;-86
2021/12/31 12:22:39;;;;;;;11.52;7.45;;;12.20;99.90;;;;;;5111139;28;20053;-87
2021/12/31 12:25:10;;;;;;;14.75;8.27;;;12.20;99.90;;;;;;5111321;28;20047;-86
2021/12/31 12:27:37;;;;;;;17.65;9.43;;;12.20;99.90;;;;;;5095137;28;20044;-84
2021/12/31 12:30:06;;;;;;;16.92;8.68;;;12.20;99.90;;;;;;5077453;28;20138;-85
2021/12/31 12:35:21;;;;;;;11.63;7.78;;;12.10;99.90;;;;;;5111403;28;20094;-85
2021/12/31 12:37:57;;;;;;;19.48;9.40;;;12.10;99.90;;;;;;5094753;28;20043;-86
2021/12/31 12:40:38;;;;;;;11.65;8.32;;;12.20;99.90;;;;;;5094490;28;20043;-86
2021/12/31 12:43:05;;;;;;;15.02;9.35;;;12.20;99.90;;;;;;5111005;28;20094;-85
2021/12/31 12:45:30;;;;;;;19.63;10.50;;;12.30;99.90;;;;;;5112573;28;20060;-85
2021/12/31 12:47:56;;;;;;;22.10;11.75;;;12.10;99.90;;;;;;5093945;28;20145;-86
2021/12/31 12:50:22;;;;;;;17.42;10.90;;;12.00;99.90;;;;;;5111188;28;20429;-87
2021/12/31 12:52:57;;;;;;;16.35;9.43;;;12.00;99.90;;;;;;5111341;28;20110;-88